Terminal Aerodrome Forecast
Issued by NWS

Home | Current Version | Previous Version | Text Only | Print | Product List | Glossary On
Versions: 1 2 3 4 5 6 7 8 9 10 11 12 13 14 15 16 17 18 19 20 21
000
FTUS43 KILX 200900 AAA
TAFBMI
TAF AMD
KBMI 200914Z 2009/2106 VRB03KT P6SM SKC
      TEMPO 2009/2012 3SM BR
     FM201400 26007KT P6SM SCT035 BKN150
     FM210000 22005KT P6SM VCTS SCT035CB BKN150=

USA.gov is the U.S. government's official web portal to all federal, state and local government web resources and services.